sensor_id;sensor_type;location;lat;lon;timestamp;P1;durP1;ratioP1;P2;durP2;ratioP2
75375;SDS011;63958;52.004;5.908;2023-01-29T00:00:52;6.25;;;4.45;;
75375;SDS011;63958;52.004;5.908;2023-01-29T00:03:20;7.55;;;4.82;;
75375;SDS011;63958;52.004;5.908;2023-01-29T00:05:49;5.95;;;4.03;;
75375;SDS011;63958;52.004;5.908;2023-01-29T00:08:21;7.68;;;5.07;;
75375;SDS011;63958;52.004;5.908;2023-01-29T00:10:49;8.13;;;4.88;;
75375;SDS011;63958;52.004;5.908;2023-01-29T00:13:18;7.90;;;5.55;;
75375;SDS011;63958;52.004;5.908;2023-01-29T00:15:52;8.20;;;5.60;;
75375;SDS011;63958;52.004;5.908;2023-01-29T00:18:22;8.10;;;4.90;;
75375;SDS011;63958;52.004;5.908;2023-01-29T00:20:51;9.32;;;5.65;;
75375;SDS011;63958;52.004;5.908;2023-01-29T00:23:23;8.20;;;4.90;;
75375;SDS011;63958;52.004;5.908;2023-01-29T00:25:52;7.15;;;4.72;;
75375;SDS011;63958;52.004;5.908;2023-01-29T00:28:21;9.38;;;5.65;;
75375;SDS011;63958;52.004;5.908;2023-01-29T00:30:49;7.38;;;5.07;;
75375;SDS011;63958;52.004;5.908;2023-01-29T00:33:18;6.40;;;4.63;;
75375;SDS011;63958;52.004;5.908;2023-01-29T00:35:47;6.93;;;4.57;;
75375;SDS011;63958;52.004;5.908;2023-01-29T00:38:16;7.28;;;4.97;;
75375;SDS011;63958;52.004;5.908;2023-01-29T00:40:47;6.25;;;4.20;;
75375;SDS011;63958;52.004;5.908;2023-01-29T00:43:29;9.73;;;6.35;;
75375;SDS011;63958;52.004;5.908;2023-01-29T00:46:10;9.75;;;6.10;;
75375;SDS011;63958;52.004;5.908;2023-01-29T00:48:40;10.43;;;6.85;;
75375;SDS011;63958;52.004;5.908;2023-01-29T00:51:09;10.60;;;6.18;;
75375;SDS011;63958;52.004;5.908;2023-01-29T00:53:37;9.30;;;6.43;;
75375;SDS011;63958;52.004;5.908;2023-01-29T00:56:09;11.05;;;6.38;;
75375;SDS011;63958;52.004;5.908;2023-01-29T00:58:38;7.10;;;4.50;;
75375;SDS011;63958;52.004;5.908;2023-01-29T01:01:07;10.15;;;5.57;;
75375;SDS011;63958;52.004;5.908;2023-01-29T01:03:35;6.50;;;4.28;;
75375;SDS011;63958;52.004;5.908;2023-01-29T01:06:07;8.55;;;5.45;;
75375;SDS011;63958;52.004;5.908;2023-01-29T01:08:37;7.43;;;4.75;;
75375;SDS011;63958;52.004;5.908;2023-01-29T01:11:21;8.25;;;5.10;;
75375;SDS011;63958;52.004;5.908;2023-01-29T01:16:26;9.15;;;6.25;;
75375;SDS011;63958;52.004;5.908;2023-01-29T01:18:55;7.95;;;4.95;;
75375;SDS011;63958;52.004;5.908;2023-01-29T01:21:24;9.57;;;6.03;;
75375;SDS011;63958;52.004;5.908;2023-01-29T01:23:53;7.88;;;5.20;;
75375;SDS011;63958;52.004;5.908;2023-01-29T01:26:24;8.15;;;5.45;;
75375;SDS011;63958;52.004;5.908;2023-01-29T01:28:54;8.60;;;6.05;;
75375;SDS011;63958;52.004;5.908;2023-01-29T01:31:23;8.55;;;5.68;;
75375;SDS011;63958;52.004;5.908;2023-01-29T01:33:52;9.93;;;5.85;;
75375;SDS011;63958;52.004;5.908;2023-01-29T01:36:22;8.70;;;5.60;;
75375;SDS011;63958;52.004;5.908;2023-01-29T01:38:51;9.70;;;5.53;;
75375;SDS011;63958;52.004;5.908;2023-01-29T01:41:20;9.20;;;5.43;;
75375;SDS011;63958;52.004;5.908;2023-01-29T01:43:53;7.22;;;4.43;;
75375;SDS011;63958;52.004;5.908;2023-01-29T01:46:24;11.85;;;6.40;;
75375;SDS011;63958;52.004;5.908;2023-01-29T01:48:57;11.38;;;6.05;;
75375;SDS011;63958;52.004;5.908;2023-01-29T01:51:31;8.07;;;5.28;;
75375;SDS011;63958;52.004;5.908;2023-01-29T01:54:04;10.57;;;6.32;;
75375;SDS011;63958;52.004;5.908;2023-01-29T01:56:38;8.27;;;5.03;;
75375;SDS011;63958;52.004;5.908;2023-01-29T01:59:14;8.77;;;6.10;;
75375;SDS011;63958;52.004;5.908;2023-01-29T02:01:45;8.52;;;5.53;;
75375;SDS011;63958;52.004;5.908;2023-01-29T02:04:17;7.18;;;4.57;;
75375;SDS011;63958;52.004;5.908;2023-01-29T02:07:02;7.18;;;4.55;;
75375;SDS011;63958;52.004;5.908;2023-01-29T02:09:47;7.18;;;4.07;;
75375;SDS011;63958;52.004;5.908;2023-01-29T02:12:20;7.28;;;5.00;;
75375;SDS011;63958;52.004;5.908;2023-01-29T02:14:52;7.68;;;4.65;;
75375;SDS011;63958;52.004;5.908;2023-01-29T02:17:21;7.35;;;4.97;;
75375;SDS011;63958;52.004;5.908;2023-01-29T02:19:52;9.73;;;4.70;;
75375;SDS011;63958;52.004;5.908;2023-01-29T02:22:40;9.57;;;6.05;;
75375;SDS011;63958;52.004;5.908;2023-01-29T02:28:36;10.40;;;5.50;;
75375;SDS011;63958;52.004;5.908;2023-01-29T02:31:15;7.70;;;5.25;;
75375;SDS011;63958;52.004;5.908;2023-01-29T02:33:54;9.48;;;5.75;;
75375;SDS011;63958;52.004;5.908;2023-01-29T02:36:33;9.57;;;5.47;;
75375;SDS011;63958;52.004;5.908;2023-01-29T02:39:12;10.25;;;6.90;;
75375;SDS011;63958;52.004;5.908;2023-01-29T02:41:57;11.25;;;6.88;;
75375;SDS011;63958;52.004;5.908;2023-01-29T02:44:36;9.98;;;6.07;;
75375;SDS011;63958;52.004;5.908;2023-01-29T02:47:09;9.93;;;6.10;;
75375;SDS011;63958;52.004;5.908;2023-01-29T02:49:44;8.07;;;5.85;;
75375;SDS011;63958;52.004;5.908;2023-01-29T02:52:18;7.85;;;4.97;;
75375;SDS011;63958;52.004;5.908;2023-01-29T02:54:51;10.00;;;5.72;;
75375;SDS011;63958;52.004;5.908;2023-01-29T02:57:28;8.25;;;6.13;;
75375;SDS011;63958;52.004;5.908;2023-01-29T03:00:04;10.43;;;6.85;;
75375;SDS011;63958;52.004;5.908;2023-01-29T03:02:41;11.05;;;6.60;;
75375;SDS011;63958;52.004;5.908;2023-01-29T03:05:13;9.55;;;6.22;;
75375;SDS011;63958;52.004;5.908;2023-01-29T03:07:50;8.63;;;5.32;;
75375;SDS011;63958;52.004;5.908;2023-01-29T03:10:30;9.48;;;5.85;;
75375;SDS011;63958;52.004;5.908;2023-01-29T03:13:05;8.82;;;5.20;;
75375;SDS011;63958;52.004;5.908;2023-01-29T03:15:43;6.57;;;4.50;;
75375;SDS011;63958;52.004;5.908;2023-01-29T03:18:32;8.30;;;5.68;;
75375;SDS011;63958;52.004;5.908;2023-01-29T03:21:10;8.52;;;5.68;;
75375;SDS011;63958;52.004;5.908;2023-01-29T03:23:54;8.45;;;5.60;;
75375;SDS011;63958;52.004;5.908;2023-01-29T03:26:39;7.95;;;4.88;;
75375;SDS011;63958;52.004;5.908;2023-01-29T03:29:23;8.07;;;5.10;;
75375;SDS011;63958;52.004;5.908;2023-01-29T03:32:07;8.00;;;4.97;;
75375;SDS011;63958;52.004;5.908;2023-01-29T03:34:39;9.75;;;5.63;;
75375;SDS011;63958;52.004;5.908;2023-01-29T03:37:12;8.07;;;5.55;;
75375;SDS011;63958;52.004;5.908;2023-01-29T03:39:47;11.13;;;6.88;;
75375;SDS011;63958;52.004;5.908;2023-01-29T03:42:18;10.55;;;6.80;;
75375;SDS011;63958;52.004;5.908;2023-01-29T03:44:53;12.63;;;7.85;;
75375;SDS011;63958;52.004;5.908;2023-01-29T03:47:39;13.27;;;8.27;;
75375;SDS011;63958;52.004;5.908;2023-01-29T03:50:16;14.30;;;8.82;;
75375;SDS011;63958;52.004;5.908;2023-01-29T03:52:55;10.23;;;6.28;;
75375;SDS011;63958;52.004;5.908;2023-01-29T03:55:29;9.68;;;5.85;;
75375;SDS011;63958;52.004;5.908;2023-01-29T03:58:05;11.50;;;6.65;;
75375;SDS011;63958;52.004;5.908;2023-01-29T04:00:44;10.30;;;6.35;;
75375;SDS011;63958;52.004;5.908;2023-01-29T04:03:23;12.75;;;7.88;;
75375;SDS011;63958;52.004;5.908;2023-01-29T04:06:02;12.70;;;7.43;;
75375;SDS011;63958;52.004;5.908;2023-01-29T04:08:40;12.35;;;8.10;;
75375;SDS011;63958;52.004;5.908;2023-01-29T04:11:16;7.82;;;5.18;;
75375;SDS011;63958;52.004;5.908;2023-01-29T04:13:48;10.07;;;6.22;;
75375;SDS011;63958;52.004;5.908;2023-01-29T04:16:19;7.25;;;4.85;;
75375;SDS011;63958;52.004;5.908;2023-01-29T04:19:11;8.50;;;5.63;;
75375;SDS011;63958;52.004;5.908;2023-01-29T04:21:41;7.55;;;5.25;;
75375;SDS011;63958;52.004;5.908;2023-01-29T04:24:12;8.82;;;6.03;;
75375;SDS011;63958;52.004;5.908;2023-01-29T04:26:49;11.15;;;5.82;;
75375;SDS011;63958;52.004;5.908;2023-01-29T04:29:28;10.18;;;6.30;;
75375;SDS011;63958;52.004;5.908;2023-01-29T04:32:12;16.63;;;10.65;;
75375;SDS011;63958;52.004;5.908;2023-01-29T04:34:58;13.18;;;8.23;;
75375;SDS011;63958;52.004;5.908;2023-01-29T04:37:33;19.13;;;11.70;;
75375;SDS011;63958;52.004;5.908;2023-01-29T04:40:10;15.48;;;9.88;;
75375;SDS011;63958;52.004;5.908;2023-01-29T04:42:47;15.70;;;10.07;;
75375;SDS011;63958;52.004;5.908;2023-01-29T04:45:24;14.02;;;8.35;;
75375;SDS011;63958;52.004;5.908;2023-01-29T04:48:03;10.52;;;7.03;;
75375;SDS011;63958;52.004;5.908;2023-01-29T04:50:46;11.55;;;6.88;;
75375;SDS011;63958;52.004;5.908;2023-01-29T04:53:22;9.50;;;6.00;;
75375;SDS011;63958;52.004;5.908;2023-01-29T04:55:57;8.38;;;5.40;;
75375;SDS011;63958;52.004;5.908;2023-01-29T04:58:32;8.75;;;5.80;;
75375;SDS011;63958;52.004;5.908;2023-01-29T05:01:06;9.93;;;6.15;;
75375;SDS011;63958;52.004;5.908;2023-01-29T05:03:38;9.52;;;5.90;;
75375;SDS011;63958;52.004;5.908;2023-01-29T05:06:12;14.55;;;8.95;;
75375;SDS011;63958;52.004;5.908;2023-01-29T05:08:43;12.45;;;7.57;;
75375;SDS011;63958;52.004;5.908;2023-01-29T05:11:13;16.10;;;9.45;;
75375;SDS011;63958;52.004;5.908;2023-01-29T05:13:42;16.60;;;9.25;;
75375;SDS011;63958;52.004;5.908;2023-01-29T05:16:12;11.43;;;7.03;;
75375;SDS011;63958;52.004;5.908;2023-01-29T05:18:44;12.65;;;7.80;;
75375;SDS011;63958;52.004;5.908;2023-01-29T05:21:16;10.60;;;6.78;;
75375;SDS011;63958;52.004;5.908;2023-01-29T05:26:36;8.82;;;6.00;;
75375;SDS011;63958;52.004;5.908;2023-01-29T05:29:17;11.10;;;7.50;;
75375;SDS011;63958;52.004;5.908;2023-01-29T05:31:46;12.02;;;8.05;;
75375;SDS011;63958;52.004;5.908;2023-01-29T05:34:15;15.50;;;10.20;;
75375;SDS011;63958;52.004;5.908;2023-01-29T05:36:46;13.85;;;8.82;;
75375;SDS011;63958;52.004;5.908;2023-01-29T05:39:16;10.45;;;6.63;;
75375;SDS011;63958;52.004;5.908;2023-01-29T05:41:45;11.07;;;6.30;;
75375;SDS011;63958;52.004;5.908;2023-01-29T05:44:14;8.73;;;5.85;;
75375;SDS011;63958;52.004;5.908;2023-01-29T05:46:42;11.40;;;7.07;;
75375;SDS011;63958;52.004;5.908;2023-01-29T05:49:11;11.57;;;6.50;;
75375;SDS011;63958;52.004;5.908;2023-01-29T05:51:40;13.60;;;7.30;;
75375;SDS011;63958;52.004;5.908;2023-01-29T05:54:12;17.25;;;8.02;;
75375;SDS011;63958;52.004;5.908;2023-01-29T05:56:41;12.90;;;7.63;;
75375;SDS011;63958;52.004;5.908;2023-01-29T05:59:10;9.18;;;5.95;;
75375;SDS011;63958;52.004;5.908;2023-01-29T06:01:39;11.52;;;7.25;;
75375;SDS011;63958;52.004;5.908;2023-01-29T06:04:08;11.80;;;7.22;;
75375;SDS011;63958;52.004;5.908;2023-01-29T06:06:37;11.60;;;7.05;;
75375;SDS011;63958;52.004;5.908;2023-01-29T06:09:08;14.27;;;7.88;;
75375;SDS011;63958;52.004;5.908;2023-01-29T06:11:40;11.32;;;7.88;;
75375;SDS011;63958;52.004;5.908;2023-01-29T06:14:09;15.57;;;10.43;;
75375;SDS011;63958;52.004;5.908;2023-01-29T06:16:38;14.43;;;9.05;;
75375;SDS011;63958;52.004;5.908;2023-01-29T06:19:06;12.30;;;8.00;;
75375;SDS011;63958;52.004;5.908;2023-01-29T06:21:35;14.35;;;9.65;;
75375;SDS011;63958;52.004;5.908;2023-01-29T06:24:04;14.68;;;9.48;;
75375;SDS011;63958;52.004;5.908;2023-01-29T06:26:36;18.65;;;10.45;;
75375;SDS011;63958;52.004;5.908;2023-01-29T06:29:05;12.18;;;7.70;;
75375;SDS011;63958;52.004;5.908;2023-01-29T06:31:34;12.70;;;8.18;;
75375;SDS011;63958;52.004;5.908;2023-01-29T06:34:03;16.25;;;10.35;;
75375;SDS011;63958;52.004;5.908;2023-01-29T06:36:32;12.60;;;8.50;;
75375;SDS011;63958;52.004;5.908;2023-01-29T06:39:01;13.48;;;8.73;;
75375;SDS011;63958;52.004;5.908;2023-01-29T06:41:30;11.73;;;8.07;;
75375;SDS011;63958;52.004;5.908;2023-01-29T06:44:02;12.00;;;8.27;;
75375;SDS011;63958;52.004;5.908;2023-01-29T06:46:30;14.73;;;8.65;;
75375;SDS011;63958;52.004;5.908;2023-01-29T06:48:59;16.25;;;10.00;;
75375;SDS011;63958;52.004;5.908;2023-01-29T06:51:28;13.40;;;9.02;;
75375;SDS011;63958;52.004;5.908;2023-01-29T06:53:57;12.88;;;7.90;;
75375;SDS011;63958;52.004;5.908;2023-01-29T06:56:26;13.55;;;8.35;;
75375;SDS011;63958;52.004;5.908;2023-01-29T06:58:55;12.55;;;8.18;;
75375;SDS011;63958;52.004;5.908;2023-01-29T07:01:26;12.35;;;8.00;;
75375;SDS011;63958;52.004;5.908;2023-01-29T07:03:55;10.55;;;6.35;;
75375;SDS011;63958;52.004;5.908;2023-01-29T07:06:26;15.57;;;9.98;;
75375;SDS011;63958;52.004;5.908;2023-01-29T07:08:55;14.35;;;9.02;;
75375;SDS011;63958;52.004;5.908;2023-01-29T07:11:24;12.52;;;8.60;;
75375;SDS011;63958;52.004;5.908;2023-01-29T07:13:53;19.65;;;12.70;;
75375;SDS011;63958;52.004;5.908;2023-01-29T07:16:22;17.60;;;10.73;;
75375;SDS011;63958;52.004;5.908;2023-01-29T07:18:53;24.92;;;14.13;;
75375;SDS011;63958;52.004;5.908;2023-01-29T07:21:22;15.07;;;10.15;;
75375;SDS011;63958;52.004;5.908;2023-01-29T07:23:51;13.80;;;9.38;;
75375;SDS011;63958;52.004;5.908;2023-01-29T07:26:20;11.23;;;7.22;;
75375;SDS011;63958;52.004;5.908;2023-01-29T07:28:49;14.60;;;8.88;;
75375;SDS011;63958;52.004;5.908;2023-01-29T07:31:18;15.00;;;8.40;;
75375;SDS011;63958;52.004;5.908;2023-01-29T07:33:47;10.00;;;6.32;;
75375;SDS011;63958;52.004;5.908;2023-01-29T07:36:18;9.23;;;6.18;;
75375;SDS011;63958;52.004;5.908;2023-01-29T07:38:48;10.48;;;6.85;;
75375;SDS011;63958;52.004;5.908;2023-01-29T07:41:17;10.23;;;6.47;;
75375;SDS011;63958;52.004;5.908;2023-01-29T07:43:46;10.18;;;6.85;;
75375;SDS011;63958;52.004;5.908;2023-01-29T07:46:15;13.88;;;8.30;;
75375;SDS011;63958;52.004;5.908;2023-01-29T07:48:44;13.15;;;8.68;;
75375;SDS011;63958;52.004;5.908;2023-01-29T07:51:13;13.85;;;8.02;;
75375;SDS011;63958;52.004;5.908;2023-01-29T07:53:45;13.75;;;8.20;;
75375;SDS011;63958;52.004;5.908;2023-01-29T07:56:14;14.18;;;9.07;;
75375;SDS011;63958;52.004;5.908;2023-01-29T07:58:43;13.75;;;8.35;;
75375;SDS011;63958;52.004;5.908;2023-01-29T08:01:12;17.15;;;11.02;;
75375;SDS011;63958;52.004;5.908;2023-01-29T08:03:41;14.13;;;8.98;;
75375;SDS011;63958;52.004;5.908;2023-01-29T08:06:10;19.65;;;12.60;;
75375;SDS011;63958;52.004;5.908;2023-01-29T08:08:38;17.48;;;10.85;;
75375;SDS011;63958;52.004;5.908;2023-01-29T08:11:10;20.17;;;12.45;;
75375;SDS011;63958;52.004;5.908;2023-01-29T08:13:40;17.00;;;9.63;;
75375;SDS011;63958;52.004;5.908;2023-01-29T08:16:08;13.10;;;8.05;;
75375;SDS011;63958;52.004;5.908;2023-01-29T08:18:37;14.00;;;8.25;;
75375;SDS011;63958;52.004;5.908;2023-01-29T08:21:08;11.10;;;7.05;;
75375;SDS011;63958;52.004;5.908;2023-01-29T08:23:37;14.82;;;9.25;;
75375;SDS011;63958;52.004;5.908;2023-01-29T08:26:06;15.32;;;8.82;;
75375;SDS011;63958;52.004;5.908;2023-01-29T08:28:38;17.83;;;11.40;;
75375;SDS011;63958;52.004;5.908;2023-01-29T08:31:11;18.42;;;10.75;;
75375;SDS011;63958;52.004;5.908;2023-01-29T08:33:41;14.77;;;9.57;;
75375;SDS011;63958;52.004;5.908;2023-01-29T08:36:10;18.25;;;11.10;;
75375;SDS011;63958;52.004;5.908;2023-01-29T08:38:39;18.00;;;10.15;;
75375;SDS011;63958;52.004;5.908;2023-01-29T08:41:08;14.25;;;9.23;;
75375;SDS011;63958;52.004;5.908;2023-01-29T08:43:39;11.23;;;7.78;;
75375;SDS011;63958;52.004;5.908;2023-01-29T08:46:08;19.10;;;12.65;;
75375;SDS011;63958;52.004;5.908;2023-01-29T08:48:37;20.17;;;12.80;;
75375;SDS011;63958;52.004;5.908;2023-01-29T08:51:06;14.10;;;9.05;;
75375;SDS011;63958;52.004;5.908;2023-01-29T08:53:36;19.80;;;12.55;;
75375;SDS011;63958;52.004;5.908;2023-01-29T08:56:05;13.55;;;8.70;;
75375;SDS011;63958;52.004;5.908;2023-01-29T08:58:34;14.13;;;9.10;;
75375;SDS011;63958;52.004;5.908;2023-01-29T09:01:09;14.98;;;9.38;;
75375;SDS011;63958;52.004;5.908;2023-01-29T09:03:39;16.10;;;10.50;;
75375;SDS011;63958;52.004;5.908;2023-01-29T09:06:09;12.30;;;7.95;;
75375;SDS011;63958;52.004;5.908;2023-01-29T09:08:39;13.25;;;7.70;;
75375;SDS011;63958;52.004;5.908;2023-01-29T09:11:08;13.45;;;8.38;;
75375;SDS011;63958;52.004;5.908;2023-01-29T09:13:37;14.65;;;9.55;;
75375;SDS011;63958;52.004;5.908;2023-01-29T09:16:09;15.43;;;10.05;;
75375;SDS011;63958;52.004;5.908;2023-01-29T09:18:38;11.32;;;7.55;;
75375;SDS011;63958;52.004;5.908;2023-01-29T09:21:07;15.05;;;10.10;;
75375;SDS011;63958;52.004;5.908;2023-01-29T09:23:36;13.00;;;8.10;;
75375;SDS011;63958;52.004;5.908;2023-01-29T09:26:05;11.20;;;7.32;;
75375;SDS011;63958;52.004;5.908;2023-01-29T09:28:35;16.10;;;11.38;;
75375;SDS011;63958;52.004;5.908;2023-01-29T09:31:03;14.30;;;8.52;;
75375;SDS011;63958;52.004;5.908;2023-01-29T09:33:35;11.95;;;7.57;;
75375;SDS011;63958;52.004;5.908;2023-01-29T09:36:04;14.48;;;8.63;;
75375;SDS011;63958;52.004;5.908;2023-01-29T09:38:34;13.57;;;8.30;;
75375;SDS011;63958;52.004;5.908;2023-01-29T09:41:05;18.30;;;11.73;;
75375;SDS011;63958;52.004;5.908;2023-01-29T09:43:44;14.10;;;8.90;;
75375;SDS011;63958;52.004;5.908;2023-01-29T09:46:17;17.55;;;11.88;;
75375;SDS011;63958;52.004;5.908;2023-01-29T09:48:54;14.52;;;9.85;;
75375;SDS011;63958;52.004;5.908;2023-01-29T09:51:29;20.35;;;12.38;;
75375;SDS011;63958;52.004;5.908;2023-01-29T09:54:05;14.18;;;10.07;;
75375;SDS011;63958;52.004;5.908;2023-01-29T09:56:44;17.92;;;11.63;;
75375;SDS011;63958;52.004;5.908;2023-01-29T09:59:13;16.05;;;10.07;;
75375;SDS011;63958;52.004;5.908;2023-01-29T10:01:49;14.30;;;9.52;;
75375;SDS011;63958;52.004;5.908;2023-01-29T10:04:34;14.85;;;10.13;;
75375;SDS011;63958;52.004;5.908;2023-01-29T10:07:21;12.32;;;8.70;;
75375;SDS011;63958;52.004;5.908;2023-01-29T10:10:04;15.80;;;10.38;;
75375;SDS011;63958;52.004;5.908;2023-01-29T10:12:42;15.95;;;10.40;;
75375;SDS011;63958;52.004;5.908;2023-01-29T10:15:22;17.30;;;10.60;;
75375;SDS011;63958;52.004;5.908;2023-01-29T10:18:03;13.55;;;8.77;;
75375;SDS011;63958;52.004;5.908;2023-01-29T10:20:52;13.00;;;9.20;;
75375;SDS011;63958;52.004;5.908;2023-01-29T10:23:33;13.63;;;8.52;;
75375;SDS011;63958;52.004;5.908;2023-01-29T10:26:05;15.38;;;10.38;;
75375;SDS011;63958;52.004;5.908;2023-01-29T10:28:40;16.13;;;11.38;;
75375;SDS011;63958;52.004;5.908;2023-01-29T10:31:12;12.70;;;9.00;;
75375;SDS011;63958;52.004;5.908;2023-01-29T10:33:44;14.27;;;9.88;;
75375;SDS011;63958;52.004;5.908;2023-01-29T10:36:20;13.18;;;8.60;;
75375;SDS011;63958;52.004;5.908;2023-01-29T10:38:59;9.02;;;6.38;;
75375;SDS011;63958;52.004;5.908;2023-01-29T10:41:33;13.02;;;9.60;;
75375;SDS011;63958;52.004;5.908;2023-01-29T10:44:23;16.90;;;9.98;;
75375;SDS011;63958;52.004;5.908;2023-01-29T10:47:06;14.65;;;10.23;;
75375;SDS011;63958;52.004;5.908;2023-01-29T10:50:01;12.90;;;8.95;;
75375;SDS011;63958;52.004;5.908;2023-01-29T10:52:45;16.50;;;10.73;;
75375;SDS011;63958;52.004;5.908;2023-01-29T10:55:27;15.98;;;10.07;;
75375;SDS011;63958;52.004;5.908;2023-01-29T10:58:06;15.75;;;11.32;;
75375;SDS011;63958;52.004;5.908;2023-01-29T11:00:44;11.27;;;8.18;;
75375;SDS011;63958;52.004;5.908;2023-01-29T11:03:14;13.95;;;8.48;;
75375;SDS011;63958;52.004;5.908;2023-01-29T11:05:48;12.65;;;8.65;;
75375;SDS011;63958;52.004;5.908;2023-01-29T11:08:23;14.93;;;9.38;;
75375;SDS011;63958;52.004;5.908;2023-01-29T11:10:58;12.13;;;8.05;;
75375;SDS011;63958;52.004;5.908;2023-01-29T11:13:33;10.95;;;7.22;;
75375;SDS011;63958;52.004;5.908;2023-01-29T11:16:07;12.90;;;7.85;;
75375;SDS011;63958;52.004;5.908;2023-01-29T11:18:47;9.48;;;6.47;;
75375;SDS011;63958;52.004;5.908;2023-01-29T11:21:18;10.77;;;7.57;;
75375;SDS011;63958;52.004;5.908;2023-01-29T11:23:50;12.75;;;8.80;;
75375;SDS011;63958;52.004;5.908;2023-01-29T11:26:33;16.17;;;11.30;;
75375;SDS011;63958;52.004;5.908;2023-01-29T11:29:11;13.73;;;8.98;;
75375;SDS011;63958;52.004;5.908;2023-01-29T11:31:57;16.92;;;11.88;;
75375;SDS011;63958;52.004;5.908;2023-01-29T11:34:27;13.45;;;9.75;;
75375;SDS011;63958;52.004;5.908;2023-01-29T11:36:58;14.30;;;9.43;;
75375;SDS011;63958;52.004;5.908;2023-01-29T11:39:31;13.40;;;9.30;;
75375;SDS011;63958;52.004;5.908;2023-01-29T11:42:01;11.50;;;7.60;;
75375;SDS011;63958;52.004;5.908;2023-01-29T11:44:33;12.15;;;8.07;;
75375;SDS011;63958;52.004;5.908;2023-01-29T11:47:14;10.13;;;7.57;;
75375;SDS011;63958;52.004;5.908;2023-01-29T11:49:47;10.55;;;8.35;;
75375;SDS011;63958;52.004;5.908;2023-01-29T11:52:17;15.65;;;11.95;;
75375;SDS011;63958;52.004;5.908;2023-01-29T11:54:51;14.35;;;10.05;;
75375;SDS011;63958;52.004;5.908;2023-01-29T11:57:25;15.30;;;11.05;;
75375;SDS011;63958;52.004;5.908;2023-01-29T11:59:57;13.43;;;10.48;;
75375;SDS011;63958;52.004;5.908;2023-01-29T12:02:34;12.13;;;8.85;;
75375;SDS011;63958;52.004;5.908;2023-01-29T12:05:12;15.43;;;10.60;;
75375;SDS011;63958;52.004;5.908;2023-01-29T12:07:44;18.33;;;11.90;;
75375;SDS011;63958;52.004;5.908;2023-01-29T12:13:03;14.77;;;11.18;;
75375;SDS011;63958;52.004;5.908;2023-01-29T12:15:33;13.32;;;9.63;;
75375;SDS011;63958;52.004;5.908;2023-01-29T12:18:05;12.98;;;9.70;;
75375;SDS011;63958;52.004;5.908;2023-01-29T12:20:41;11.80;;;8.52;;
75375;SDS011;63958;52.004;5.908;2023-01-29T12:23:21;14.90;;;11.18;;
75375;SDS011;63958;52.004;5.908;2023-01-29T12:26:03;14.98;;;9.82;;
75375;SDS011;63958;52.004;5.908;2023-01-29T12:28:40;10.98;;;8.57;;
75375;SDS011;63958;52.004;5.908;2023-01-29T12:31:17;11.93;;;8.68;;
75375;SDS011;63958;52.004;5.908;2023-01-29T12:33:55;14.93;;;10.80;;
75375;SDS011;63958;52.004;5.908;2023-01-29T12:36:33;11.93;;;9.13;;
75375;SDS011;63958;52.004;5.908;2023-01-29T12:39:07;13.60;;;9.98;;
75375;SDS011;63958;52.004;5.908;2023-01-29T12:41:40;11.60;;;8.73;;
75375;SDS011;63958;52.004;5.908;2023-01-29T12:44:14;16.17;;;11.18;;
75375;SDS011;63958;52.004;5.908;2023-01-29T12:46:48;20.48;;;13.63;;
75375;SDS011;63958;52.004;5.908;2023-01-29T12:49:21;20.60;;;14.70;;
75375;SDS011;63958;52.004;5.908;2023-01-29T12:51:55;19.77;;;15.43;;
75375;SDS011;63958;52.004;5.908;2023-01-29T12:54:33;19.10;;;14.32;;
75375;SDS011;63958;52.004;5.908;2023-01-29T12:57:13;21.38;;;14.70;;
75375;SDS011;63958;52.004;5.908;2023-01-29T12:59:51;17.92;;;13.60;;
75375;SDS011;63958;52.004;5.908;2023-01-29T13:02:30;17.17;;;13.20;;
75375;SDS011;63958;52.004;5.908;2023-01-29T13:05:03;14.60;;;10.57;;
75375;SDS011;63958;52.004;5.908;2023-01-29T13:07:41;15.88;;;11.98;;
75375;SDS011;63958;52.004;5.908;2023-01-29T13:10:15;16.23;;;11.85;;
75375;SDS011;63958;52.004;5.908;2023-01-29T13:12:51;23.30;;;15.02;;
75375;SDS011;63958;52.004;5.908;2023-01-29T13:15:27;20.48;;;14.93;;
75375;SDS011;63958;52.004;5.908;2023-01-29T13:18:02;17.55;;;12.15;;
75375;SDS011;63958;52.004;5.908;2023-01-29T13:20:47;16.73;;;11.90;;
75375;SDS011;63958;52.004;5.908;2023-01-29T13:23:18;17.40;;;12.38;;
75375;SDS011;63958;52.004;5.908;2023-01-29T13:25:52;15.77;;;11.70;;
75375;SDS011;63958;52.004;5.908;2023-01-29T13:28:24;18.60;;;12.27;;
75375;SDS011;63958;52.004;5.908;2023-01-29T13:31:10;13.25;;;9.88;;
75375;SDS011;63958;52.004;5.908;2023-01-29T13:33:41;19.48;;;13.73;;
75375;SDS011;63958;52.004;5.908;2023-01-29T13:36:19;16.00;;;11.30;;
75375;SDS011;63958;52.004;5.908;2023-01-29T13:38:54;14.00;;;10.43;;
75375;SDS011;63958;52.004;5.908;2023-01-29T13:41:31;13.90;;;10.13;;
75375;SDS011;63958;52.004;5.908;2023-01-29T13:44:05;19.90;;;13.27;;
75375;SDS011;63958;52.004;5.908;2023-01-29T13:46:38;15.57;;;10.93;;
75375;SDS011;63958;52.004;5.908;2023-01-29T13:49:17;19.17;;;13.00;;
75375;SDS011;63958;52.004;5.908;2023-01-29T13:51:53;18.88;;;13.30;;
75375;SDS011;63958;52.004;5.908;2023-01-29T13:54:23;22.70;;;15.85;;
75375;SDS011;63958;52.004;5.908;2023-01-29T13:56:58;17.87;;;11.37;;
75375;SDS011;63958;52.004;5.908;2023-01-29T14:02:24;23.40;;;14.90;;
75375;SDS011;63958;52.004;5.908;2023-01-29T14:07:57;15.65;;;10.50;;
75375;SDS011;63958;52.004;5.908;2023-01-29T14:10:27;17.40;;;11.93;;
75375;SDS011;63958;52.004;5.908;2023-01-29T14:18:55;18.55;;;12.05;;
75375;SDS011;63958;52.004;5.908;2023-01-29T14:21:27;15.52;;;10.95;;
75375;SDS011;63958;52.004;5.908;2023-01-29T14:24:06;16.33;;;11.23;;
75375;SDS011;63958;52.004;5.908;2023-01-29T14:26:42;15.88;;;10.60;;
75375;SDS011;63958;52.004;5.908;2023-01-29T14:29:16;19.00;;;13.73;;
75375;SDS011;63958;52.004;5.908;2023-01-29T14:31:48;17.80;;;12.35;;
75375;SDS011;63958;52.004;5.908;2023-01-29T14:34:25;16.73;;;10.88;;
75375;SDS011;63958;52.004;5.908;2023-01-29T14:36:57;18.08;;;11.75;;
75375;SDS011;63958;52.004;5.908;2023-01-29T14:39:32;23.00;;;15.27;;
75375;SDS011;63958;52.004;5.908;2023-01-29T14:42:04;19.08;;;13.00;;
75375;SDS011;63958;52.004;5.908;2023-01-29T14:44:47;19.60;;;12.57;;
75375;SDS011;63958;52.004;5.908;2023-01-29T14:50:43;19.15;;;12.23;;
75375;SDS011;63958;52.004;5.908;2023-01-29T14:53:28;18.10;;;12.27;;
75375;SDS011;63958;52.004;5.908;2023-01-29T14:56:13;18.85;;;12.65;;
75375;SDS011;63958;52.004;5.908;2023-01-29T14:58:45;17.08;;;12.10;;
75375;SDS011;63958;52.004;5.908;2023-01-29T15:01:18;20.75;;;14.00;;
75375;SDS011;63958;52.004;5.908;2023-01-29T15:03:50;19.13;;;13.10;;
75375;SDS011;63958;52.004;5.908;2023-01-29T15:06:30;23.02;;;13.82;;
75375;SDS011;63958;52.004;5.908;2023-01-29T15:09:04;15.57;;;10.75;;
75375;SDS011;63958;52.004;5.908;2023-01-29T15:11:43;16.67;;;10.15;;
75375;SDS011;63958;52.004;5.908;2023-01-29T15:14:20;15.75;;;10.98;;
75375;SDS011;63958;52.004;5.908;2023-01-29T15:17:13;15.10;;;10.32;;
75375;SDS011;63958;52.004;5.908;2023-01-29T15:19:46;17.10;;;11.43;;
75375;SDS011;63958;52.004;5.908;2023-01-29T15:22:19;13.00;;;9.18;;
75375;SDS011;63958;52.004;5.908;2023-01-29T15:25:04;20.13;;;12.90;;
75375;SDS011;63958;52.004;5.908;2023-01-29T15:27:34;19.08;;;10.90;;
75375;SDS011;63958;52.004;5.908;2023-01-29T15:30:04;20.48;;;13.02;;
75375;SDS011;63958;52.004;5.908;2023-01-29T15:32:35;19.43;;;12.23;;
75375;SDS011;63958;52.004;5.908;2023-01-29T15:35:08;18.73;;;12.07;;
75375;SDS011;63958;52.004;5.908;2023-01-29T15:37:40;19.42;;;12.73;;